Time;durP1;ratioP1;P1;durP2;ratioP2;P2;SDS_P1;SDS_P2;PMS_P1;PMS_P2;Temp;Humidity;BMP_temperature;BMP_pressure;BME280_temperature;BME280_humidity;BME280_pressure;Samples;Min_cycle;Max_cycle;Signal;HPM_P1;HPM_P2
2022/05/22 00:02:15;;;;;;;2.37;1.40;;;21.10;61.80;;;;;;5081214;28;21052;-50
2022/05/22 00:04:43;;;;;;;1.40;1.30;;;21.10;61.70;;;;;;5076948;28;20485;-50
2022/05/22 00:07:11;;;;;;;1.60;1.50;;;21.10;61.80;;;;;;5054969;28;20478;-50
2022/05/22 00:09:39;;;;;;;2.07;1.30;;;21.10;61.90;;;;;;5065039;28;20474;-49
2022/05/22 00:12:11;;;;;;;1.80;1.70;;;21.10;61.80;;;;;;5060376;28;20496;-48
2022/05/22 00:14:39;;;;;;;1.30;1.20;;;21.10;61.80;;;;;;5045955;28;21027;-48
2022/05/22 00:17:08;;;;;;;1.30;1.20;;;21.10;61.80;;;;;;5077542;28;20472;-51
2022/05/22 00:19:37;;;;;;;1.50;1.30;;;21.10;61.80;;;;;;5077058;28;20824;-49
2022/05/22 00:22:07;;;;;;;0.90;0.83;;;21.10;61.80;;;;;;5057178;28;20517;-50
2022/05/22 00:24:36;;;;;;;1.47;1.10;;;21.10;61.80;;;;;;5062558;28;20434;-49
2022/05/22 00:27:05;;;;;;;2.70;1.70;;;21.10;61.90;;;;;;5060556;28;20571;-50
2022/05/22 00:29:37;;;;;;;1.40;1.20;;;21.10;61.80;;;;;;5064144;28;20447;-48
2022/05/22 00:32:07;;;;;;;1.93;1.13;;;21.10;61.80;;;;;;5076437;28;20979;-49
2022/05/22 00:34:36;;;;;;;2.40;1.30;;;21.10;61.90;;;;;;5060225;28;20467;-46
2022/05/22 00:37:06;;;;;;;1.10;1.00;;;21.10;61.90;;;;;;5063174;28;21103;-49
2022/05/22 00:39:36;;;;;;;1.60;1.37;;;21.10;61.80;;;;;;5063782;28;20451;-51
2022/05/22 00:42:15;;;;;;;1.30;1.10;;;21.10;61.90;;;;;;5079224;28;20476;-50
2022/05/22 00:44:45;;;;;;;1.30;1.20;;;21.10;61.80;;;;;;5062853;28;20465;-48
2022/05/22 00:47:14;;;;;;;1.63;1.40;;;21.10;61.80;;;;;;5059384;28;20554;-49
2022/05/22 00:49:44;;;;;;;1.13;1.03;;;21.10;61.90;;;;;;5044018;28;20897;-50
2022/05/22 00:52:16;;;;;;;1.43;1.33;;;21.10;61.90;;;;;;5044711;28;20554;-47
2022/05/22 00:54:48;;;;;;;1.60;1.40;;;21.10;61.80;;;;;;5063255;28;20504;-47
2022/05/22 00:57:20;;;;;;;1.60;1.50;;;21.00;61.70;;;;;;5062852;28;20516;-48
2022/05/22 00:59:52;;;;;;;1.63;1.23;;;21.00;61.80;;;;;;5065962;28;20533;-51
2022/05/22 01:02:22;;;;;;;1.47;1.37;;;21.00;61.60;;;;;;5063812;28;20478;-49
2022/05/22 01:04:51;;;;;;;3.50;1.33;;;21.00;61.70;;;;;;5049865;28;20472;-50
2022/05/22 01:07:20;;;;;;;2.30;1.63;;;21.10;61.90;;;;;;5065592;28;20987;-48
2022/05/22 01:09:49;;;;;;;1.67;1.20;;;21.00;61.70;;;;;;5083829;28;20536;-48
2022/05/22 01:12:21;;;;;;;1.57;1.40;;;21.00;61.60;;;;;;5072675;28;20478;-48
2022/05/22 01:14:55;;;;;;;2.00;1.53;;;21.00;61.70;;;;;;5062164;28;20461;-50
2022/05/22 01:17:23;;;;;;;1.60;1.43;;;21.00;61.70;;;;;;5066071;28;20553;-48
2022/05/22 01:19:57;;;;;;;2.43;1.20;;;21.00;61.70;;;;;;5062718;28;20439;-49
2022/05/22 01:22:27;;;;;;;1.73;1.30;;;21.00;61.80;;;;;;5074899;28;20478;-49
2022/05/22 01:24:57;;;;;;;2.47;1.30;;;21.00;61.90;;;;;;5070234;28;20444;-50
2022/05/22 01:27:27;;;;;;;1.50;1.20;;;21.00;61.80;;;;;;5050172;28;20510;-50
2022/05/22 01:30:20;;;;;;;1.73;1.47;;;21.00;61.70;;;;;;5055105;28;20442;-48
2022/05/22 01:32:55;;;;;;;1.40;1.30;;;21.00;61.80;;;;;;5062965;28;20476;-49
2022/05/22 01:35:26;;;;;;;0.87;0.87;;;21.00;61.90;;;;;;5059934;28;20537;-48
2022/05/22 01:37:56;;;;;;;2.90;1.50;;;21.00;61.90;;;;;;5076776;28;20838;-48
2022/05/22 01:40:26;;;;;;;2.20;1.60;;;21.00;61.80;;;;;;5073199;28;20964;-49
2022/05/22 01:42:54;;;;;;;1.40;1.30;;;21.00;61.90;;;;;;5054609;28;20840;-50
2022/05/22 01:45:25;;;;;;;1.50;1.40;;;20.90;61.80;;;;;;5062233;28;20448;-50
2022/05/22 01:47:54;;;;;;;1.33;1.23;;;21.00;61.80;;;;;;5063196;28;20506;-50
2022/05/22 01:50:33;;;;;;;2.50;1.57;;;20.90;61.70;;;;;;5052961;28;20444;-47
2022/05/22 01:53:03;;;;;;;1.50;1.40;;;20.90;61.60;;;;;;5088259;28;21077;-49
2022/05/22 01:55:32;;;;;;;2.33;1.50;;;20.90;61.60;;;;;;5042091;28;20454;-49
2022/05/22 01:58:06;;;;;;;1.20;1.10;;;21.00;61.80;;;;;;5053881;28;20478;-50
2022/05/22 02:00:36;;;;;;;1.50;1.23;;;20.90;61.70;;;;;;5076949;28;20446;-49
2022/05/22 02:03:06;;;;;;;1.80;1.33;;;20.90;61.70;;;;;;5078286;28;20479;-49
2022/05/22 02:05:36;;;;;;;1.40;1.10;;;20.90;61.60;;;;;;5071626;28;20578;-49
2022/05/22 02:08:22;;;;;;;1.40;1.30;;;20.90;61.70;;;;;;5046275;28;20474;-50
2022/05/22 02:10:57;;;;;;;1.30;1.20;;;20.90;61.80;;;;;;5049034;28;20522;-49
2022/05/22 02:13:30;;;;;;;1.50;1.40;;;20.90;61.70;;;;;;5037793;28;20455;-49
2022/05/22 02:15:59;;;;;;;2.10;1.20;;;20.90;61.70;;;;;;5068259;28;20492;-49
2022/05/22 02:18:33;;;;;;;2.27;1.50;;;20.90;61.70;;;;;;5067796;28;20454;-51
2022/05/22 02:21:05;;;;;;;2.00;1.30;;;20.90;61.70;;;;;;5078861;28;20490;-50
2022/05/22 02:23:37;;;;;;;1.80;1.43;;;20.90;61.80;;;;;;5069100;28;20461;-49
2022/05/22 02:26:11;;;;;;;2.23;1.73;;;20.90;61.70;;;;;;5069242;28;20517;-49
2022/05/22 02:28:41;;;;;;;1.27;1.17;;;20.80;61.70;;;;;;5050358;28;20448;-49
2022/05/22 02:31:10;;;;;;;1.57;1.07;;;20.90;61.70;;;;;;5088080;28;20461;-47
2022/05/22 02:33:42;;;;;;;1.67;1.50;;;20.90;61.80;;;;;;5088102;28;20433;-51
2022/05/22 02:36:14;;;;;;;1.70;1.60;;;20.80;61.70;;;;;;5062564;28;20838;-49
2022/05/22 02:38:46;;;;;;;1.67;1.57;;;20.80;61.60;;;;;;5065726;28;20432;-50
2022/05/22 02:41:20;;;;;;;1.30;1.20;;;20.80;61.60;;;;;;5097361;28;20441;-49
2022/05/22 02:43:54;;;;;;;2.00;1.13;;;20.80;61.60;;;;;;5075258;28;20450;-48
2022/05/22 02:46:24;;;;;;;1.50;1.40;;;20.80;61.60;;;;;;5069185;28;20929;-51
2022/05/22 02:48:53;;;;;;;1.43;1.33;;;20.80;61.70;;;;;;5089031;28;20433;-48
2022/05/22 02:51:35;;;;;;;1.73;1.20;;;20.80;61.60;;;;;;5074290;28;20486;-50
2022/05/22 02:54:05;;;;;;;1.60;1.20;;;20.80;61.60;;;;;;5055335;28;20426;-49
2022/05/22 02:57:04;;;;;;;1.43;1.33;;;20.80;61.70;;;;;;5061779;28;20463;-49
2022/05/22 02:59:51;;;;;;;2.30;1.30;;;20.80;61.70;;;;;;5074008;28;20437;-48
2022/05/22 03:02:33;;;;;;;2.30;1.50;;;20.80;61.70;;;;;;5062922;28;20525;-50
2022/05/22 03:05:02;;;;;;;1.60;1.10;;;20.80;61.60;;;;;;5045038;28;20502;-49
2022/05/22 03:07:30;;;;;;;1.63;1.40;;;20.80;61.70;;;;;;5039758;28;20478;-48
2022/05/22 03:10:19;;;;;;;1.57;1.40;;;20.70;61.80;;;;;;5073458;28;20444;-48
2022/05/22 03:12:48;;;;;;;1.80;1.47;;;20.80;61.80;;;;;;5060338;28;20486;-52
2022/05/22 03:15:27;;;;;;;2.37;1.13;;;20.70;61.60;;;;;;5077034;28;20433;-48
2022/05/22 03:17:56;;;;;;;1.83;1.53;;;20.80;61.70;;;;;;5065146;28;20527;-49
2022/05/22 03:20:24;;;;;;;1.27;1.03;;;20.80;61.80;;;;;;5064802;28;20450;-46
2022/05/22 03:22:52;;;;;;;3.70;1.50;;;20.70;61.70;;;;;;5055954;28;20537;-48
2022/05/22 03:25:22;;;;;;;1.90;1.40;;;20.70;61.70;;;;;;5069710;28;20470;-48
2022/05/22 03:27:50;;;;;;;2.30;1.40;;;20.70;61.70;;;;;;5047868;28;20500;-49
2022/05/22 03:30:19;;;;;;;1.83;1.40;;;20.70;61.70;;;;;;5060051;28;20427;-49
2022/05/22 03:33:03;;;;;;;1.73;1.50;;;20.70;61.60;;;;;;5064659;28;20467;-47
2022/05/22 03:35:33;;;;;;;1.77;1.20;;;20.70;61.70;;;;;;5061027;28;20443;-49
2022/05/22 03:38:10;;;;;;;1.50;1.40;;;20.70;61.60;;;;;;5064572;28;20972;-49
2022/05/22 03:40:45;;;;;;;1.97;1.30;;;20.70;61.70;;;;;;5065596;28;20481;-51
2022/05/22 03:43:14;;;;;;;1.97;1.77;;;20.70;61.60;;;;;;5040825;28;20466;-51
2022/05/22 03:45:43;;;;;;;1.63;1.50;;;20.70;61.70;;;;;;5056049;28;20941;-48
2022/05/22 03:48:12;;;;;;;1.60;1.37;;;20.70;61.70;;;;;;5064969;28;20898;-45
2022/05/22 03:50:43;;;;;;;1.77;1.20;;;20.70;61.60;;;;;;5050423;28;20616;-50
2022/05/22 03:53:15;;;;;;;1.87;1.47;;;20.70;61.60;;;;;;5062103;28;20994;-48
2022/05/22 03:55:48;;;;;;;2.00;1.30;;;20.70;61.70;;;;;;5076629;28;21023;-49
2022/05/22 03:58:18;;;;;;;1.30;1.20;;;20.70;61.70;;;;;;5071424;28;20536;-49
2022/05/22 04:00:49;;;;;;;2.17;1.60;;;20.70;61.60;;;;;;5066350;28;20433;-49
2022/05/22 04:03:17;;;;;;;1.30;1.20;;;20.70;61.60;;;;;;5059182;28;20474;-48
2022/05/22 04:05:53;;;;;;;1.30;1.20;;;20.70;61.70;;;;;;5056702;28;20452;-49
2022/05/22 04:08:22;;;;;;;1.40;1.30;;;20.70;61.60;;;;;;5059159;28;20474;-51
2022/05/22 04:10:56;;;;;;;1.20;1.10;;;20.60;61.60;;;;;;5061024;28;20483;-50
2022/05/22 04:13:25;;;;;;;1.57;1.47;;;20.60;61.60;;;;;;5049480;28;21063;-48
2022/05/22 04:15:55;;;;;;;1.40;1.30;;;20.60;61.70;;;;;;5066415;28;20437;-49
2022/05/22 04:18:24;;;;;;;1.30;1.20;;;20.60;61.70;;;;;;5065347;28;20519;-50
2022/05/22 04:20:56;;;;;;;1.70;1.60;;;20.60;61.70;;;;;;5065440;28;20435;-48
2022/05/22 04:26:35;;;;;;;2.07;1.40;;;20.60;61.60;;;;;;5062640;28;20474;-47
2022/05/22 04:29:07;;;;;;;1.77;1.10;;;20.60;61.70;;;;;;5053106;28;20441;-51
2022/05/22 04:31:35;;;;;;;1.53;1.40;;;20.60;61.70;;;;;;5066532;28;20540;-48
2022/05/22 04:34:16;;;;;;;1.63;1.53;;;20.60;61.70;;;;;;5065356;28;20437;-50
2022/05/22 04:36:45;;;;;;;1.70;1.10;;;20.60;61.70;;;;;;5043246;28;20462;-49
2022/05/22 04:39:30;;;;;;;1.90;1.37;;;20.60;61.70;;;;;;5051568;28;20450;-48
2022/05/22 04:42:09;;;;;;;1.67;1.30;;;20.50;61.70;;;;;;5067634;28;20473;-48
2022/05/22 04:44:38;;;;;;;1.40;1.20;;;20.50;61.50;;;;;;5054983;28;20506;-48
2022/05/22 04:47:25;;;;;;;1.70;1.33;;;20.50;61.60;;;;;;5069046;28;20818;-47
2022/05/22 04:50:14;;;;;;;1.23;1.13;;;20.50;61.70;;;;;;5072953;28;20557;-50
2022/05/22 04:53:02;;;;;;;1.53;1.17;;;20.50;61.50;;;;;;5058967;28;20466;-49
2022/05/22 04:55:40;;;;;;;2.17;1.37;;;20.50;61.60;;;;;;5042446;28;20427;-48
2022/05/22 04:58:16;;;;;;;1.97;1.50;;;20.50;61.70;;;;;;5047835;28;20869;-51
2022/05/22 05:00:45;;;;;;;1.23;1.13;;;20.50;61.60;;;;;;5066090;28;20434;-50
2022/05/22 05:03:16;;;;;;;1.90;1.50;;;20.50;61.70;;;;;;5069728;28;20488;-51
2022/05/22 05:05:55;;;;;;;1.87;1.30;;;20.50;61.80;;;;;;5059011;28;20435;-49
2022/05/22 05:08:29;;;;;;;2.27;1.50;;;20.50;61.70;;;;;;5045861;28;20447;-49
2022/05/22 05:11:03;;;;;;;1.90;1.70;;;20.50;61.70;;;;;;5047851;28;20528;-51
2022/05/22 05:13:43;;;;;;;1.20;1.10;;;20.50;61.70;;;;;;5061451;28;20473;-47
2022/05/22 05:16:13;;;;;;;1.30;1.20;;;20.50;61.80;;;;;;5086752;28;20430;-50
2022/05/22 05:22:32;;;;;;;1.97;1.53;;;20.50;62.00;;;;;;5041633;28;21038;-49
2022/05/22 05:25:14;;;;;;;1.50;1.40;;;20.50;62.10;;;;;;5064221;28;20978;-50
2022/05/22 05:27:44;;;;;;;1.27;1.17;;;20.50;62.00;;;;;;5043018;28;20502;-51
2022/05/22 05:30:21;;;;;;;1.30;1.20;;;20.50;62.00;;;;;;5049533;28;20443;-50
2022/05/22 05:32:54;;;;;;;1.37;1.27;;;20.40;62.00;;;;;;5063146;28;20473;-48
2022/05/22 05:36:06;;;;;;;1.70;1.10;;;20.50;62.10;;;;;;5043332;28;20451;-50
2022/05/22 05:43:10;;;;;;;1.53;1.30;;;20.50;62.10;;;;;;4969638;28;20469;-50
2022/05/22 05:45:47;;;;;;;1.47;1.30;;;20.40;62.00;;;;;;5033394;28;20442;-47
2022/05/22 05:48:16;;;;;;;1.40;1.30;;;20.40;61.90;;;;;;5061142;28;20467;-48
2022/05/22 05:50:56;;;;;;;1.40;1.30;;;20.40;61.90;;;;;;5061595;28;20455;-46
2022/05/22 05:53:38;;;;;;;1.30;1.20;;;20.40;61.90;;;;;;5045969;28;20462;-49
2022/05/22 05:56:25;;;;;;;1.70;1.20;;;20.40;62.00;;;;;;5067416;28;20484;-48
2022/05/22 05:59:27;;;;;;;1.47;1.00;;;20.40;62.00;;;;;;5056391;28;20915;-48
2022/05/22 06:02:13;;;;;;;1.33;1.23;;;20.40;61.90;;;;;;5063640;28;20477;-48
2022/05/22 06:04:45;;;;;;;1.90;1.50;;;20.40;62.10;;;;;;5061922;28;20435;-48
2022/05/22 06:07:16;;;;;;;1.30;1.20;;;20.40;61.90;;;;;;5058440;28;20553;-48
2022/05/22 06:09:46;;;;;;;1.40;1.30;;;20.40;62.00;;;;;;5052495;28;20478;-49
2022/05/22 06:12:37;;;;;;;2.17;1.20;;;20.40;62.00;;;;;;5042226;28;20467;-49
2022/05/22 06:15:18;;;;;;;1.60;1.50;;;20.40;62.00;;;;;;5060976;28;20454;-49
2022/05/22 06:17:49;;;;;;;1.20;1.10;;;20.40;62.10;;;;;;5083068;28;20472;-49
2022/05/22 06:20:23;;;;;;;1.63;1.13;;;20.40;62.10;;;;;;5065407;28;20805;-48
2022/05/22 06:22:53;;;;;;;2.37;1.63;;;20.40;62.10;;;;;;5060578;28;20822;-47
2022/05/22 06:25:46;;;;;;;2.77;1.87;;;20.40;62.00;;;;;;5049023;28;20440;-49
2022/05/22 06:28:36;;;;;;;1.10;1.00;;;20.40;61.90;;;;;;5016169;28;20477;-50
2022/05/22 06:31:07;;;;;;;2.37;1.40;;;20.40;62.00;;;;;;5067306;28;20422;-49
2022/05/22 06:33:52;;;;;;;1.90;1.70;;;20.40;62.00;;;;;;5085119;28;20523;-51
2022/05/22 06:36:29;;;;;;;1.47;1.30;;;20.30;61.80;;;;;;5052001;28;20498;-50
2022/05/22 06:42:17;;;;;;;2.63;1.50;;;20.30;61.90;;;;;;5062322;28;20479;-50
2022/05/22 06:44:57;;;;;;;2.50;2.07;;;20.30;61.80;;;;;;5081252;28;20422;-48
2022/05/22 06:47:49;;;;;;;1.80;1.63;;;20.30;61.90;;;;;;5060285;28;20462;-48
2022/05/22 06:50:44;;;;;;;1.73;1.40;;;20.30;62.00;;;;;;5041831;28;20946;-49
2022/05/22 06:53:33;;;;;;;3.40;2.00;;;20.30;62.00;;;;;;5066373;28;20492;-49
2022/05/22 06:56:24;;;;;;;2.47;1.87;;;20.30;62.00;;;;;;5063290;28;20458;-50
2022/05/22 06:59:07;;;;;;;3.00;2.43;;;20.30;62.00;;;;;;5056054;28;20458;-50
2022/05/22 07:01:59;;;;;;;2.73;2.53;;;20.30;61.80;;;;;;5065686;28;20461;-48
2022/05/22 07:04:57;;;;;;;2.80;1.90;;;20.30;61.80;;;;;;5059408;28;20445;-50
2022/05/22 07:07:46;;;;;;;1.93;1.73;;;20.30;62.00;;;;;;5028798;28;20466;-51
2022/05/22 07:13:54;;;;;;;2.93;1.57;;;20.30;62.10;;;;;;5039819;28;20473;-48
2022/05/22 07:16:31;;;;;;;1.47;1.30;;;20.30;62.00;;;;;;5081524;28;20450;-51
2022/05/22 07:19:09;;;;;;;1.70;1.60;;;20.30;62.10;;;;;;5062725;28;20446;-51
2022/05/22 07:21:52;;;;;;;2.70;2.00;;;20.30;62.20;;;;;;5052331;28;20489;-48
2022/05/22 07:24:44;;;;;;;1.70;1.60;;;20.30;62.10;;;;;;5064172;28;20833;-47
2022/05/22 07:27:21;;;;;;;4.53;1.87;;;20.30;62.10;;;;;;5059495;28;20934;-47
2022/05/22 07:29:57;;;;;;;2.50;1.30;;;20.30;62.20;;;;;;5044428;28;20430;-48
2022/05/22 07:32:42;;;;;;;1.70;1.60;;;20.30;62.10;;;;;;5055929;28;21449;-49
2022/05/22 07:35:29;;;;;;;1.53;1.33;;;20.30;62.10;;;;;;5043168;28;20461;-50
2022/05/22 07:38:32;;;;;;;1.80;1.50;;;20.30;62.10;;;;;;5074200;28;20468;-50
2022/05/22 07:41:13;;;;;;;1.90;1.73;;;20.30;62.10;;;;;;5060830;28;20542;-51
2022/05/22 07:44:08;;;;;;;1.80;1.33;;;20.30;62.10;;;;;;5047674;28;20438;-49
2022/05/22 07:47:02;;;;;;;1.63;1.33;;;20.30;62.20;;;;;;5066063;28;20467;-48
2022/05/22 07:53:07;;;;;;;3.47;1.43;;;20.30;62.10;;;;;;5059283;28;20462;-48
2022/05/22 07:55:39;;;;;;;1.37;1.27;;;20.30;62.10;;;;;;5063717;28;20426;-48
2022/05/22 07:58:27;;;;;;;1.47;1.37;;;20.30;62.10;;;;;;5043835;28;20474;-48
2022/05/22 08:01:32;;;;;;;8.63;2.37;;;20.30;62.10;;;;;;5052667;28;20978;-48
2022/05/22 08:04:04;;;;;;;2.00;1.90;;;20.30;61.90;;;;;;5064792;28;20446;-50
2022/05/22 08:07:00;;;;;;;3.17;1.70;;;20.40;62.00;;;;;;5049157;28;20887;-50
2022/05/22 08:09:41;;;;;;;2.93;1.50;;;20.30;61.90;;;;;;5080393;28;20445;-47
2022/05/22 08:12:10;;;;;;;2.40;1.50;;;20.30;61.90;;;;;;5060631;28;20482;-47
2022/05/22 08:14:40;;;;;;;1.37;1.27;;;20.30;61.90;;;;;;5044615;28;20467;-49
2022/05/22 08:17:08;;;;;;;1.50;1.30;;;20.30;62.00;;;;;;5044983;28;20471;-51
2022/05/22 08:19:39;;;;;;;2.37;1.57;;;20.30;62.00;;;;;;5045989;28;21281;-48
2022/05/22 08:22:28;;;;;;;1.93;1.63;;;20.30;62.00;;;;;;5046010;28;20447;-48
2022/05/22 08:25:20;;;;;;;3.20;1.60;;;20.30;62.00;;;;;;5052769;28;20820;-49
2022/05/22 08:27:51;;;;;;;2.70;1.50;;;20.30;62.10;;;;;;5069605;28;20905;-47
2022/05/22 08:30:22;;;;;;;1.80;1.27;;;20.30;62.10;;;;;;5047790;28;20926;-48
2022/05/22 08:32:52;;;;;;;2.07;1.33;;;20.30;62.10;;;;;;5062734;28;20549;-49
2022/05/22 08:35:22;;;;;;;2.77;1.70;;;20.30;62.10;;;;;;5059721;28;20442;-48
2022/05/22 08:37:51;;;;;;;1.90;1.20;;;20.30;62.20;;;;;;5043255;28;20467;-49
2022/05/22 08:40:22;;;;;;;2.07;1.30;;;20.30;62.20;;;;;;5056749;28;20464;-49
2022/05/22 08:42:53;;;;;;;2.33;2.13;;;20.20;62.10;;;;;;5053876;28;20474;-49
2022/05/22 08:45:27;;;;;;;1.23;1.13;;;20.20;62.10;;;;;;5055518;28;21060;-47
2022/05/22 08:48:03;;;;;;;1.63;1.17;;;20.20;62.10;;;;;;5063359;28;20458;-49
2022/05/22 08:50:36;;;;;;;1.50;1.40;;;20.30;62.30;;;;;;5056294;28;20442;-48
2022/05/22 08:53:09;;;;;;;2.13;1.43;;;20.30;62.20;;;;;;5056036;28;20547;-51
2022/05/22 09:01:41;;;;;;;2.00;1.30;;;20.20;62.10;;;;;;5050154;28;20990;-50
2022/05/22 09:04:34;;;;;;;1.50;1.30;;;20.20;62.20;;;;;;5059327;28;20837;-51
2022/05/22 09:07:22;;;;;;;1.80;1.40;;;20.20;62.20;;;;;;5073857;28;20548;-47
2022/05/22 09:09:57;;;;;;;1.30;1.10;;;20.20;62.10;;;;;;5054419;28;20515;-48
2022/05/22 09:12:48;;;;;;;1.93;1.43;;;20.20;62.20;;;;;;5066510;28;20475;-48
2022/05/22 09:15:19;;;;;;;1.57;1.40;;;20.20;62.20;;;;;;5043644;28;20443;-49
2022/05/22 09:17:59;;;;;;;1.10;1.00;;;20.30;62.40;;;;;;5053005;28;20833;-47
2022/05/22 09:20:38;;;;;;;2.30;1.40;;;20.20;62.10;;;;;;5063827;28;20880;-50
2022/05/22 09:23:25;;;;;;;1.60;1.50;;;20.20;62.10;;;;;;5053817;28;20542;-49
2022/05/22 09:26:02;;;;;;;1.30;1.20;;;20.20;62.10;;;;;;5072921;28;20437;-48
2022/05/22 09:28:47;;;;;;;2.17;1.37;;;20.30;62.20;;;;;;5065028;28;21354;-50
2022/05/22 09:31:27;;;;;;;2.93;1.60;;;20.20;62.10;;;;;;5056100;28;20426;-49
2022/05/22 09:34:09;;;;;;;1.30;1.17;;;20.30;62.10;;;;;;5075564;28;20422;-48
2022/05/22 09:36:55;;;;;;;2.60;1.20;;;20.30;62.20;;;;;;5046062;28;20556;-49
2022/05/22 09:39:43;;;;;;;1.90;1.60;;;20.30;62.20;;;;;;5058424;28;20464;-48
2022/05/22 09:42:24;;;;;;;2.30;1.40;;;20.20;62.00;;;;;;5072717;28;20475;-50
2022/05/22 09:45:15;;;;;;;1.57;1.10;;;20.20;62.10;;;;;;5056806;28;20784;-51
2022/05/22 09:48:12;;;;;;;1.80;1.53;;;20.20;62.10;;;;;;5065771;28;20485;-46
2022/05/22 09:51:00;;;;;;;1.30;1.13;;;20.20;62.00;;;;;;5071492;28;20436;-48
2022/05/22 09:53:47;;;;;;;2.63;1.50;;;20.30;62.20;;;;;;5082001;28;20449;-50
2022/05/22 09:56:45;;;;;;;1.47;1.37;;;20.30;62.20;;;;;;5086920;28;20467;-50
2022/05/22 09:59:34;;;;;;;1.63;1.40;;;20.20;62.10;;;;;;5055653;28;20478;-49
2022/05/22 10:02:07;;;;;;;1.17;1.00;;;20.20;62.10;;;;;;5085963;28;20996;-49
2022/05/22 10:04:44;;;;;;;1.77;1.10;;;20.20;62.10;;;;;;5066198;28;20442;-49
2022/05/22 10:07:21;;;;;;;2.20;1.30;;;20.20;62.00;;;;;;5066621;28;20470;-47
2022/05/22 10:09:58;;;;;;;3.43;1.23;;;20.30;62.20;;;;;;5062786;28;20420;-49
2022/05/22 10:12:38;;;;;;;2.00;1.30;;;20.20;62.10;;;;;;5060223;28;20585;-47
2022/05/22 10:15:17;;;;;;;2.90;1.47;;;20.20;62.10;;;;;;5046664;28;20499;-48
2022/05/22 10:17:58;;;;;;;1.47;1.10;;;20.30;62.20;;;;;;5046664;28;20462;-48
2022/05/22 10:20:37;;;;;;;2.70;1.10;;;20.30;62.20;;;;;;5057615;28;20460;-48
2022/05/22 10:23:21;;;;;;;1.70;1.43;;;20.20;62.20;;;;;;5065028;28;20474;-46
2022/05/22 10:26:02;;;;;;;2.63;1.60;;;20.20;62.10;;;;;;5084038;28;20451;-53
2022/05/22 10:28:36;;;;;;;1.07;1.07;;;20.20;62.10;;;;;;5061788;28;20511;-47
2022/05/22 10:31:13;;;;;;;1.50;1.40;;;20.20;62.10;;;;;;5067084;28;20450;-50
2022/05/22 10:33:58;;;;;;;1.73;1.63;;;20.20;62.10;;;;;;5066464;28;20885;-49
2022/05/22 10:36:45;;;;;;;1.47;1.37;;;20.20;62.10;;;;;;5067816;28;20473;-48
2022/05/22 10:39:42;;;;;;;2.80;1.70;;;20.20;62.10;;;;;;5067423;28;20479;-48
2022/05/22 10:42:54;;;;;;;1.80;1.30;;;20.20;62.10;;;;;;5059401;28;20478;-47
2022/05/22 10:46:05;;;;;;;1.40;1.20;;;20.20;62.30;;;;;;5051025;28;20433;-47
2022/05/22 10:48:57;;;;;;;1.47;1.37;;;20.30;62.30;;;;;;5051783;28;20520;-50
2022/05/22 10:51:32;;;;;;;1.47;1.27;;;20.20;62.10;;;;;;5067755;28;20537;-48
2022/05/22 10:58:23;;;;;;;1.30;1.20;;;20.20;62.10;;;;;;5043770;28;20535;-47
2022/05/22 11:01:03;;;;;;;1.50;1.40;;;20.20;62.10;;;;;;5069880;28;20469;-49
2022/05/22 11:04:03;;;;;;;1.37;1.27;;;20.20;62.10;;;;;;5072811;28;20478;-47
2022/05/22 11:06:40;;;;;;;2.77;1.40;;;20.30;62.20;;;;;;5050696;28;20484;-49
2022/05/22 11:09:09;;;;;;;1.30;1.20;;;20.20;62.20;;;;;;5066093;28;20496;-48
2022/05/22 11:11:41;;;;;;;1.40;1.30;;;20.30;62.20;;;;;;5075280;28;20477;-49
2022/05/22 11:14:15;;;;;;;1.40;1.30;;;20.30;62.10;;;;;;5048452;28;20928;-47
2022/05/22 11:16:44;;;;;;;1.60;1.50;;;20.30;62.10;;;;;;5068124;28;20475;-49
2022/05/22 11:19:24;;;;;;;1.70;1.60;;;20.20;62.10;;;;;;5080169;28;20947;-49
2022/05/22 11:22:04;;;;;;;1.80;1.23;;;20.30;62.20;;;;;;5074951;28;20464;-49
2022/05/22 11:24:46;;;;;;;1.77;1.67;;;20.30;62.30;;;;;;5083203;28;20441;-49
2022/05/22 11:27:28;;;;;;;1.37;1.20;;;20.30;62.00;;;;;;5062025;28;20509;-49
2022/05/22 11:30:28;;;;;;;1.93;1.30;;;20.30;62.10;;;;;;5066697;28;20426;-49
2022/05/22 11:33:12;;;;;;;1.50;1.40;;;20.30;62.10;;;;;;5065985;28;20497;-48
2022/05/22 11:35:46;;;;;;;1.63;1.53;;;20.30;62.10;;;;;;5060342;28;20528;-51
2022/05/22 11:38:43;;;;;;;1.43;1.33;;;20.30;62.10;;;;;;5049085;28;20482;-48
2022/05/22 11:41:22;;;;;;;1.90;1.43;;;20.30;62.20;;;;;;5080505;28;20525;-49
2022/05/22 11:44:19;;;;;;;1.97;1.70;;;20.30;62.20;;;;;;5056363;28;20466;-48
2022/05/22 11:47:04;;;;;;;1.43;1.20;;;20.30;62.30;;;;;;5063714;28;20509;-47
2022/05/22 11:49:43;;;;;;;1.47;1.37;;;20.30;62.20;;;;;;5062553;28;20434;-51
2022/05/22 11:55:27;;;;;;;2.30;1.53;;;20.30;62.10;;;;;;5054411;28;20504;-51
2022/05/22 11:58:05;;;;;;;1.80;1.70;;;20.30;62.20;;;;;;5055458;28;20498;-48
2022/05/22 12:00:38;;;;;;;1.60;1.50;;;20.30;62.20;;;;;;5063355;28;20466;-50
2022/05/22 12:03:25;;;;;;;2.30;1.30;;;20.30;62.20;;;;;;5077146;28;20561;-47
2022/05/22 12:06:08;;;;;;;1.60;1.50;;;20.30;62.20;;;;;;5080554;28;20417;-51
2022/05/22 12:08:56;;;;;;;1.43;1.33;;;20.30;62.20;;;;;;5047144;28;20473;-49
2022/05/22 12:11:33;;;;;;;1.70;1.53;;;20.30;62.20;;;;;;5072452;28;20430;-49
2022/05/22 12:14:16;;;;;;;1.60;1.50;;;20.40;62.30;;;;;;5049538;28;20445;-51
2022/05/22 12:16:50;;;;;;;2.23;1.43;;;20.40;62.30;;;;;;5063650;28;20478;-47
2022/05/22 12:19:37;;;;;;;1.40;1.30;;;20.40;62.30;;;;;;5065108;28;20438;-50
2022/05/22 12:22:15;;;;;;;1.60;1.50;;;20.40;62.40;;;;;;5053402;28;20470;-48
2022/05/22 12:24:53;;;;;;;1.63;1.40;;;20.40;62.40;;;;;;5063512;28;20429;-48
2022/05/22 12:27:25;;;;;;;1.50;1.40;;;20.40;62.30;;;;;;5068557;28;20476;-49
2022/05/22 12:30:04;;;;;;;1.27;1.17;;;20.40;62.40;;;;;;5063484;28;20449;-48
2022/05/22 12:32:38;;;;;;;1.73;1.30;;;20.40;62.30;;;;;;5043849;28;20549;-47
2022/05/22 12:35:11;;;;;;;2.00;1.50;;;20.40;62.30;;;;;;5043310;28;20510;-49
2022/05/22 12:37:48;;;;;;;1.30;1.20;;;20.40;62.30;;;;;;5058585;28;20474;-48
2022/05/22 12:40:29;;;;;;;1.40;1.30;;;20.40;62.30;;;;;;5060877;28;20538;-50
2022/05/22 12:43:01;;;;;;;1.63;1.53;;;20.40;62.40;;;;;;5063293;28;20894;-47
2022/05/22 12:45:31;;;;;;;2.03;1.40;;;20.50;62.40;;;;;;5052341;28;20446;-47
2022/05/22 12:48:11;;;;;;;1.40;1.23;;;20.40;62.30;;;;;;5073767;28;20461;-51
2022/05/22 12:50:49;;;;;;;1.50;1.23;;;20.50;62.30;;;;;;5070919;28;21060;-47
2022/05/22 12:53:27;;;;;;;1.87;1.20;;;20.50;62.40;;;;;;5071717;28;20477;-49
2022/05/22 12:55:56;;;;;;;1.90;1.53;;;20.50;62.40;;;;;;5083171;28;20432;-49
2022/05/22 12:58:41;;;;;;;1.63;1.53;;;20.50;62.40;;;;;;5047505;28;20475;-47
2022/05/22 13:01:38;;;;;;;1.87;1.30;;;20.50;62.50;;;;;;5086758;28;20503;-67
2022/05/22 13:04:33;;;;;;;1.50;1.40;;;20.50;62.40;;;;;;5121162;27;20509;-50
2022/05/22 13:07:18;;;;;;;1.43;1.30;;;20.50;62.40;;;;;;5065226;27;21081;-48
2022/05/22 13:10:13;;;;;;;1.40;1.30;;;20.50;62.50;;;;;;5100964;27;20568;-50
2022/05/22 13:13:00;;;;;;;1.77;1.67;;;20.50;62.40;;;;;;5055721;27;20580;-47
2022/05/22 13:15:57;;;;;;;1.90;1.60;;;20.50;62.40;;;;;;5068016;28;20463;-48
2022/05/22 13:18:49;;;;;;;1.60;1.30;;;20.50;62.40;;;;;;5101828;27;20547;-47
2022/05/22 13:21:39;;;;;;;2.50;1.37;;;20.50;62.50;;;;;;5117018;27;20638;-49
2022/05/22 13:24:38;;;;;;;1.37;1.27;;;20.50;62.40;;;;;;5106596;27;20536;-49
2022/05/22 13:27:35;;;;;;;2.03;1.40;;;20.50;62.50;;;;;;5065725;27;20587;-50
2022/05/22 13:30:22;;;;;;;2.90;1.80;;;20.50;62.30;;;;;;5081570;27;20590;-48
2022/05/22 13:33:07;;;;;;;1.50;1.40;;;20.60;62.60;;;;;;5064730;27;20566;-48
2022/05/22 13:35:56;;;;;;;1.27;1.17;;;20.60;62.50;;;;;;5081183;28;20536;-49
2022/05/22 13:38:38;;;;;;;1.70;1.60;;;20.60;62.60;;;;;;5121891;27;20558;-48
2022/05/22 13:42:01;;;;;;;2.30;1.50;;;20.60;62.50;;;;;;5119096;27;20530;-48
2022/05/22 13:45:17;;;;;;;1.50;1.40;;;20.60;62.50;;;;;;5080048;28;20508;-48
2022/05/22 13:48:34;;;;;;;1.83;1.17;;;20.60;62.50;;;;;;5111064;27;20585;-48
2022/05/22 13:54:36;;;;;;;1.50;1.40;;;20.60;62.50;;;;;;5081572;28;20507;-49
2022/05/22 13:57:27;;;;;;;1.40;1.30;;;20.60;62.50;;;;;;5087051;27;20607;-48
2022/05/22 14:00:20;;;;;;;1.50;1.40;;;20.60;62.50;;;;;;5122379;27;20521;-50
2022/05/22 14:03:09;;;;;;;1.37;1.27;;;20.60;62.50;;;;;;5113110;27;20564;-47
2022/05/22 14:05:57;;;;;;;1.33;1.23;;;20.60;62.40;;;;;;5070123;28;20528;-48
2022/05/22 14:08:42;;;;;;;2.17;1.40;;;20.70;62.30;;;;;;5081963;28;20515;-49
2022/05/22 14:11:28;;;;;;;2.30;1.50;;;20.70;62.50;;;;;;5101833;27;20543;-49
2022/05/22 14:14:18;;;;;;;1.57;1.40;;;20.70;62.50;;;;;;5070666;28;20645;-48
2022/05/22 14:17:02;;;;;;;2.00;1.53;;;20.70;62.50;;;;;;5067801;28;20594;-48
2022/05/22 14:20:07;;;;;;;1.83;1.63;;;20.70;62.50;;;;;;5060891;28;20627;-46
2022/05/22 14:22:51;;;;;;;1.60;1.50;;;20.70;62.20;;;;;;5058796;27;20596;-49
2022/05/22 14:25:35;;;;;;;2.13;1.93;;;20.70;62.30;;;;;;5142575;27;20517;-48
2022/05/22 14:28:32;;;;;;;1.57;1.47;;;20.70;62.30;;;;;;5082609;27;20585;-49